Terminal Aerodrome Forecast
Issued by NWS Corpus Christi, TX

Home | Current Version | Previous Version | Text Only | Print | Product List | Glossary On
Versions: 1 2 3 4 5 6 7 8 9 10 11 12 13 14 15 16 17 18 19 20 21 22
108
FTUS44 KCRP 240810 AAA
TAFVCT
TAF AMD
KVCT 240810Z 2408/2506 14006KT P6SM SCT012 BKN024
      TEMPO 2408/2410 BKN012 OVC025
     FM241000 14004KT 5SM BR SCT007 OVC014
      TEMPO 2410/2414 BKN007 OVC014
     FM241400 15007KT P6SM BKN015 OVC030
     FM241800 14012KT P6SM BKN025 OVC050
     FM242100 12014G20KT P6SM SCT025 BKN050
     FM250100 13010KT P6SM SCT020 BKN250
     FM250400 13007KT P6SM BKN015=

USA.gov is the U.S. government's official web portal to all federal, state and local government web resources and services.